Aérodrome :
LOGIN :

S'inscrire | Disclaimer

   EN    FR    IT 

 










Légende :    VFR   VFR Marginal   IFR   IFR Intensif   IFR Très Intensif
Visi : 
Plafond : 
>= 8 km
>= 3000ft
5 à 8 km
1000 à 3000 ft
1500m à 5 km
500 à 1000 ft
800 à 1500m
200 à 500 ft
< 800m
< 200 ft
Symboles :   Orages  Brouillard  Fortes neiges  Fortes précipitations  Vent > 20 kt
SIGMETs :   Divers  Orages  Givrage  Turbulence  Onde Orograph.  Cendres Volcan.






- Altitude de l'aérodrome : 82 ft
- Code IATA : QIE


LFMI - Istres

DERNIER METAR :
  • 150930Z AUTO 26017KT 9999 // NSC 18/13 Q1012

METARs EXPIRÉS :
  • 150900Z AUTO 27015KT 9999 // FEW039 OVC120 17/13 Q1011
  • 150830Z AUTO 26012KT 9999 // FEW049 OVC120 16/14 Q1011
  • 150800Z AUTO 25011KT 9999 // NSC 16/15 Q1011
  • 150730Z AUTO 24006KT 210V270 9999 // NSC 16/15 Q1010
  • 150700Z AUTO 24006KT 210V280 9999 // NSC 15/14 Q1010

TAF TAF LFMI
Valide du 15 à 09h jusqu'au 16 à 09h UTC


150800Z 1509/1609 25010KT 9999 BKN020 BKN050
BECMG 1509/1510 30015KT
BECMG 1518/1520 30008KT



MET'MAP, la Météo Aéronautique d'un coup d'oeil ! - Copyright ORBIFLY Décembre 2007 - Disclaimer

ORBIFLY MET'MAP TEAM :

Programmation & Développement : Alexandra Zaïnal
Conception & Développement : Baudouin d'Aumeries
Co-Programmation & Développement : Marc-Olivier Méhu
Soutien technique & logistique : Manuel Goepfert

Contact : metmap@orbifly.com




SOURCES & CREDITS :

   NOAA